Startpagina
METAR-TAF:

METAR-TAF

Vliegvelden :

Aéroport de Strasbourg

Straatsburg, Frankrijk

breedte: 48-33N, lengte: 007-38E, hoogte: 153 m

Actueel weer

Dit bericht is 27 minuten geleden gemaakt, om 02:00 UTC
Wind 7 kt uit het zuiden
Temperatuur -1°C
Vochtigheid 86%
Druk 1026 hPa
Zicht: 7000 m
Geheel bewolkt op 1100 ft

METAR: LFST 240200Z AUTO 19007KT 7000 OVC011 M01/M03 Q1026 TEMPO 0400 FZFG VV///

Tijdstip: 03:27 (02:27 UTC)

Verwachting

Dit bericht is 3 uur en het 27 minuten geleden gemaakt, om 23:00 UTC
Verwachting geldig van 24 om 00 UTC tot 24 om 24 UTC
Wind 4 kt uit variabele richting
Zicht: 7000 m
Geheel bewolkt op 1000 ft
Tijdelijke
van 24 om 00 UTC tot 24 om 12 UTC
Zicht: 3000 m
Geheel bewolkt op 300 ft
nevel
Kans 40% :
Tijdelijke
van 24 om 00 UTC tot 24 om 10 UTC
Zicht: 0400 m
onderkoelde mist
Wijzigt naar
van 24 om 12 UTC tot 24 om 14 UTC
Verspreide wolken op 1000 ft

TAF: LFST 232300Z 2400/2424 VRB04KT 7000 OVC010 TEMPO 2400/2412 3000 BR OVC003 PROB40 TEMPO 2400/2410 0400 FZFG VV/// BECMG 2412/2414 SCT010

Waarnemingen en weersverwachtingen van meer dan 4000 vliegvelden (METAR en TAF).

De beschikbare stations zijn de gele en rode punten op de kaart.

Ga met uw muis naar het station om de naam te zien.

Klik dan om waarnemingen en weersverwachtingen te zien.

kaart wijzigen: klik op de groene knoppen met een zwart kruis om in te zoomen, op de groene knop met een streepje om uit te zoomen of op de groene pijlen voor aangrenzende kaarten.


METAR-TAF: